sensor_id;sensor_type;location;lat;lon;timestamp;P1;durP1;ratioP1;P2;durP2;ratioP2
16705;SDS011;8469;60.136;15.180;2022-08-20T00:01:25;5.70;;;4.60;;
16705;SDS011;8469;60.136;15.180;2022-08-20T00:03:52;6.10;;;4.70;;
16705;SDS011;8469;60.136;15.180;2022-08-20T00:06:20;7.62;;;5.10;;
16705;SDS011;8469;60.136;15.180;2022-08-20T00:08:50;7.80;;;5.30;;
16705;SDS011;8469;60.136;15.180;2022-08-20T00:11:20;7.17;;;4.62;;
16705;SDS011;8469;60.136;15.180;2022-08-20T00:13:48;8.85;;;5.12;;
16705;SDS011;8469;60.136;15.180;2022-08-20T00:16:16;6.53;;;4.75;;
16705;SDS011;8469;60.136;15.180;2022-08-20T00:18:44;6.75;;;5.10;;
16705;SDS011;8469;60.136;15.180;2022-08-20T00:21:12;7.50;;;5.22;;
16705;SDS011;8469;60.136;15.180;2022-08-20T00:23:40;8.50;;;5.03;;
16705;SDS011;8469;60.136;15.180;2022-08-20T00:26:08;5.60;;;5.00;;
16705;SDS011;8469;60.136;15.180;2022-08-20T00:28:36;7.08;;;5.30;;
16705;SDS011;8469;60.136;15.180;2022-08-20T00:31:04;11.35;;;5.20;;
16705;SDS011;8469;60.136;15.180;2022-08-20T00:33:33;5.92;;;5.00;;
16705;SDS011;8469;60.136;15.180;2022-08-20T00:36:00;7.75;;;5.20;;
16705;SDS011;8469;60.136;15.180;2022-08-20T00:38:31;10.03;;;5.50;;
16705;SDS011;8469;60.136;15.180;2022-08-20T00:40:59;5.87;;;5.22;;
16705;SDS011;8469;60.136;15.180;2022-08-20T00:43:33;7.67;;;5.35;;
16705;SDS011;8469;60.136;15.180;2022-08-20T00:45:55;7.08;;;5.03;;
16705;SDS011;8469;60.136;15.180;2022-08-20T00:48:24;10.95;;;5.45;;
16705;SDS011;8469;60.136;15.180;2022-08-20T00:50:52;5.72;;;5.10;;
16705;SDS011;8469;60.136;15.180;2022-08-20T00:53:20;8.67;;;5.57;;
16705;SDS011;8469;60.136;15.180;2022-08-20T00:55:49;6.33;;;5.53;;
16705;SDS011;8469;60.136;15.180;2022-08-20T00:58:17;6.45;;;5.47;;
16705;SDS011;8469;60.136;15.180;2022-08-20T01:00:45;7.33;;;5.30;;
16705;SDS011;8469;60.136;15.180;2022-08-20T01:03:14;7.05;;;5.75;;
16705;SDS011;8469;60.136;15.180;2022-08-20T01:05:43;8.38;;;5.72;;
16705;SDS011;8469;60.136;15.180;2022-08-20T01:08:11;7.70;;;6.00;;
16705;SDS011;8469;60.136;15.180;2022-08-20T01:10:40;9.30;;;6.10;;
16705;SDS011;8469;60.136;15.180;2022-08-20T01:13:11;8.75;;;6.17;;
16705;SDS011;8469;60.136;15.180;2022-08-20T01:15:38;10.75;;;6.47;;
16705;SDS011;8469;60.136;15.180;2022-08-20T01:18:10;7.30;;;6.30;;
16705;SDS011;8469;60.136;15.180;2022-08-20T01:20:43;9.65;;;6.45;;
16705;SDS011;8469;60.136;15.180;2022-08-20T01:25:57;9.03;;;6.58;;
16705;SDS011;8469;60.136;15.180;2022-08-20T01:28:26;8.58;;;6.75;;
16705;SDS011;8469;60.136;15.180;2022-08-20T01:30:56;8.18;;;6.45;;
16705;SDS011;8469;60.136;15.180;2022-08-20T01:33:23;11.25;;;6.92;;
16705;SDS011;8469;60.136;15.180;2022-08-20T01:35:52;8.10;;;6.35;;
16705;SDS011;8469;60.136;15.180;2022-08-20T01:38:19;9.93;;;6.53;;
16705;SDS011;8469;60.136;15.180;2022-08-20T01:40:50;9.10;;;6.35;;
16705;SDS011;8469;60.136;15.180;2022-08-20T01:43:20;11.20;;;6.80;;
16705;SDS011;8469;60.136;15.180;2022-08-20T01:45:49;7.85;;;6.40;;
16705;SDS011;8469;60.136;15.180;2022-08-20T01:48:18;8.48;;;6.53;;
16705;SDS011;8469;60.136;15.180;2022-08-20T01:50:54;8.15;;;6.92;;
16705;SDS011;8469;60.136;15.180;2022-08-20T01:53:20;9.60;;;6.65;;
16705;SDS011;8469;60.136;15.180;2022-08-20T01:55:46;8.13;;;6.78;;
16705;SDS011;8469;60.136;15.180;2022-08-20T01:58:13;9.03;;;7.35;;
16705;SDS011;8469;60.136;15.180;2022-08-20T02:00:41;9.75;;;7.25;;
16705;SDS011;8469;60.136;15.180;2022-08-20T02:03:08;8.45;;;7.00;;
16705;SDS011;8469;60.136;15.180;2022-08-20T02:05:35;8.83;;;7.20;;
16705;SDS011;8469;60.136;15.180;2022-08-20T02:08:03;8.63;;;7.00;;
16705;SDS011;8469;60.136;15.180;2022-08-20T02:10:31;12.93;;;7.78;;
16705;SDS011;8469;60.136;15.180;2022-08-20T02:12:59;8.98;;;7.17;;
16705;SDS011;8469;60.136;15.180;2022-08-20T02:15:26;11.93;;;7.50;;
16705;SDS011;8469;60.136;15.180;2022-08-20T02:17:54;11.25;;;7.70;;
16705;SDS011;8469;60.136;15.180;2022-08-20T02:20:27;11.28;;;7.37;;
16705;SDS011;8469;60.136;15.180;2022-08-20T02:22:52;8.75;;;7.22;;
16705;SDS011;8469;60.136;15.180;2022-08-20T02:25:23;9.87;;;7.90;;
16705;SDS011;8469;60.136;15.180;2022-08-20T02:27:52;12.25;;;7.80;;
16705;SDS011;8469;60.136;15.180;2022-08-20T02:30:21;11.78;;;8.15;;
16705;SDS011;8469;60.136;15.180;2022-08-20T02:32:48;10.85;;;8.30;;
16705;SDS011;8469;60.136;15.180;2022-08-20T02:35:15;10.88;;;8.20;;
16705;SDS011;8469;60.136;15.180;2022-08-20T02:37:44;13.18;;;8.03;;
16705;SDS011;8469;60.136;15.180;2022-08-20T02:40:14;13.50;;;8.00;;
16705;SDS011;8469;60.136;15.180;2022-08-20T02:42:41;11.07;;;8.10;;
16705;SDS011;8469;60.136;15.180;2022-08-20T02:45:12;13.95;;;7.92;;
16705;SDS011;8469;60.136;15.180;2022-08-20T02:47:37;13.18;;;8.23;;
16705;SDS011;8469;60.136;15.180;2022-08-20T02:50:05;9.85;;;8.48;;
16705;SDS011;8469;60.136;15.180;2022-08-20T02:52:33;15.28;;;8.50;;
16705;SDS011;8469;60.136;15.180;2022-08-20T02:55:00;14.80;;;8.23;;
16705;SDS011;8469;60.136;15.180;2022-08-20T02:57:28;12.43;;;8.73;;
16705;SDS011;8469;60.136;15.180;2022-08-20T02:59:55;14.35;;;8.65;;
16705;SDS011;8469;60.136;15.180;2022-08-20T03:02:22;11.43;;;8.60;;
16705;SDS011;8469;60.136;15.180;2022-08-20T03:04:49;12.10;;;8.98;;
16705;SDS011;8469;60.136;15.180;2022-08-20T03:07:17;10.82;;;8.15;;
16705;SDS011;8469;60.136;15.180;2022-08-20T03:09:43;13.53;;;9.03;;
16705;SDS011;8469;60.136;15.180;2022-08-20T03:12:11;12.47;;;9.35;;
16705;SDS011;8469;60.136;15.180;2022-08-20T03:14:39;11.88;;;9.38;;
16705;SDS011;8469;60.136;15.180;2022-08-20T03:17:08;13.70;;;9.87;;
16705;SDS011;8469;60.136;15.180;2022-08-20T03:19:35;11.78;;;9.48;;
16705;SDS011;8469;60.136;15.180;2022-08-20T03:22:02;13.80;;;8.80;;
16705;SDS011;8469;60.136;15.180;2022-08-20T03:24:30;12.53;;;8.53;;
16705;SDS011;8469;60.136;15.180;2022-08-20T03:26:57;9.98;;;8.15;;
16705;SDS011;8469;60.136;15.180;2022-08-20T03:29:24;12.83;;;8.90;;
16705;SDS011;8469;60.136;15.180;2022-08-20T03:31:51;11.00;;;9.03;;
16705;SDS011;8469;60.136;15.180;2022-08-20T03:34:18;15.43;;;9.43;;
16705;SDS011;8469;60.136;15.180;2022-08-20T03:36:46;14.07;;;9.50;;
16705;SDS011;8469;60.136;15.180;2022-08-20T03:39:14;10.48;;;8.40;;
16705;SDS011;8469;60.136;15.180;2022-08-20T03:41:41;10.75;;;7.72;;
16705;SDS011;8469;60.136;15.180;2022-08-20T03:44:08;10.03;;;8.28;;
16705;SDS011;8469;60.136;15.180;2022-08-20T03:46:35;13.93;;;8.85;;
16705;SDS011;8469;60.136;15.180;2022-08-20T03:49:04;13.95;;;9.90;;
16705;SDS011;8469;60.136;15.180;2022-08-20T03:51:32;13.22;;;8.88;;
16705;SDS011;8469;60.136;15.180;2022-08-20T03:53:59;12.30;;;8.83;;
16705;SDS011;8469;60.136;15.180;2022-08-20T03:56:27;14.53;;;9.03;;
16705;SDS011;8469;60.136;15.180;2022-08-20T03:58:54;11.65;;;9.50;;
16705;SDS011;8469;60.136;15.180;2022-08-20T04:01:21;13.10;;;9.18;;
16705;SDS011;8469;60.136;15.180;2022-08-20T04:03:49;11.03;;;8.85;;
16705;SDS011;8469;60.136;15.180;2022-08-20T04:06:16;10.53;;;8.60;;
16705;SDS011;8469;60.136;15.180;2022-08-20T04:08:43;9.63;;;8.25;;
16705;SDS011;8469;60.136;15.180;2022-08-20T04:11:11;13.10;;;8.60;;
16705;SDS011;8469;60.136;15.180;2022-08-20T04:13:38;12.58;;;8.68;;
16705;SDS011;8469;60.136;15.180;2022-08-20T04:16:05;11.85;;;8.90;;
16705;SDS011;8469;60.136;15.180;2022-08-20T04:18:34;11.80;;;9.35;;
16705;SDS011;8469;60.136;15.180;2022-08-20T04:21:02;11.80;;;8.85;;
16705;SDS011;8469;60.136;15.180;2022-08-20T04:23:31;12.23;;;8.83;;
16705;SDS011;8469;60.136;15.180;2022-08-20T04:25:58;15.10;;;9.13;;
16705;SDS011;8469;60.136;15.180;2022-08-20T04:28:26;11.73;;;9.45;;
16705;SDS011;8469;60.136;15.180;2022-08-20T04:30:56;32.88;;;10.28;;
16705;SDS011;8469;60.136;15.180;2022-08-20T04:33:24;15.78;;;10.18;;
16705;SDS011;8469;60.136;15.180;2022-08-20T04:35:52;13.55;;;9.98;;
16705;SDS011;8469;60.136;15.180;2022-08-20T04:38:21;14.35;;;10.40;;
16705;SDS011;8469;60.136;15.180;2022-08-20T04:40:48;15.68;;;9.63;;
16705;SDS011;8469;60.136;15.180;2022-08-20T04:43:19;16.80;;;9.55;;
16705;SDS011;8469;60.136;15.180;2022-08-20T04:45:51;12.28;;;9.15;;
16705;SDS011;8469;60.136;15.180;2022-08-20T04:48:20;13.53;;;9.13;;
16705;SDS011;8469;60.136;15.180;2022-08-20T04:50:51;8.90;;;7.50;;
16705;SDS011;8469;60.136;15.180;2022-08-20T04:53:19;8.68;;;7.22;;
16705;SDS011;8469;60.136;15.180;2022-08-20T04:55:48;7.65;;;6.17;;
16705;SDS011;8469;60.136;15.180;2022-08-20T04:58:22;7.08;;;6.10;;
16705;SDS011;8469;60.136;15.180;2022-08-20T05:00:46;6.00;;;5.15;;
16705;SDS011;8469;60.136;15.180;2022-08-20T05:03:14;6.55;;;4.92;;
16705;SDS011;8469;60.136;15.180;2022-08-20T05:05:43;7.37;;;4.33;;
16705;SDS011;8469;60.136;15.180;2022-08-20T05:08:11;5.40;;;4.90;;
16705;SDS011;8469;60.136;15.180;2022-08-20T05:10:40;7.97;;;4.40;;
16705;SDS011;8469;60.136;15.180;2022-08-20T05:13:08;5.47;;;4.70;;
16705;SDS011;8469;60.136;15.180;2022-08-20T05:15:35;5.60;;;4.53;;
16705;SDS011;8469;60.136;15.180;2022-08-20T05:18:04;6.67;;;4.20;;
16705;SDS011;8469;60.136;15.180;2022-08-20T05:20:34;5.40;;;4.40;;
16705;SDS011;8469;60.136;15.180;2022-08-20T05:23:03;4.70;;;4.15;;
16705;SDS011;8469;60.136;15.180;2022-08-20T05:25:30;4.40;;;3.37;;
16705;SDS011;8469;60.136;15.180;2022-08-20T05:27:59;5.78;;;3.80;;
16705;SDS011;8469;60.136;15.180;2022-08-20T05:30:27;5.03;;;4.10;;
16705;SDS011;8469;60.136;15.180;2022-08-20T05:32:59;8.03;;;4.00;;
16705;SDS011;8469;60.136;15.180;2022-08-20T05:35:27;5.47;;;3.70;;
16705;SDS011;8469;60.136;15.180;2022-08-20T05:37:54;5.15;;;3.40;;
16705;SDS011;8469;60.136;15.180;2022-08-20T05:40:23;9.57;;;3.97;;
16705;SDS011;8469;60.136;15.180;2022-08-20T05:42:50;5.33;;;3.47;;
16705;SDS011;8469;60.136;15.180;2022-08-20T05:45:18;5.42;;;3.30;;
16705;SDS011;8469;60.136;15.180;2022-08-20T05:47:46;5.05;;;3.60;;
16705;SDS011;8469;60.136;15.180;2022-08-20T05:50:15;5.92;;;3.75;;
16705;SDS011;8469;60.136;15.180;2022-08-20T05:52:43;7.85;;;3.67;;
16705;SDS011;8469;60.136;15.180;2022-08-20T05:55:11;4.15;;;3.35;;
16705;SDS011;8469;60.136;15.180;2022-08-20T05:57:39;4.40;;;3.50;;
16705;SDS011;8469;60.136;15.180;2022-08-20T06:00:08;4.28;;;3.30;;
16705;SDS011;8469;60.136;15.180;2022-08-20T06:02:35;3.98;;;3.60;;
16705;SDS011;8469;60.136;15.180;2022-08-20T06:05:20;4.47;;;3.70;;
16705;SDS011;8469;60.136;15.180;2022-08-20T06:07:48;3.72;;;3.42;;
16705;SDS011;8469;60.136;15.180;2022-08-20T06:10:16;4.60;;;3.90;;
16705;SDS011;8469;60.136;15.180;2022-08-20T06:12:44;3.85;;;3.50;;
16705;SDS011;8469;60.136;15.180;2022-08-20T06:15:12;4.62;;;3.40;;
16705;SDS011;8469;60.136;15.180;2022-08-20T06:17:39;3.80;;;3.42;;
16705;SDS011;8469;60.136;15.180;2022-08-20T06:20:07;5.53;;;3.87;;
16705;SDS011;8469;60.136;15.180;2022-08-20T06:22:34;3.90;;;3.50;;
16705;SDS011;8469;60.136;15.180;2022-08-20T06:25:04;3.87;;;3.52;;
16705;SDS011;8469;60.136;15.180;2022-08-20T06:27:32;4.12;;;3.72;;
16705;SDS011;8469;60.136;15.180;2022-08-20T06:29:59;5.20;;;3.62;;
16705;SDS011;8469;60.136;15.180;2022-08-20T06:32:26;5.30;;;3.83;;
16705;SDS011;8469;60.136;15.180;2022-08-20T06:34:53;7.90;;;3.67;;
16705;SDS011;8469;60.136;15.180;2022-08-20T06:37:26;7.03;;;3.73;;
16705;SDS011;8469;60.136;15.180;2022-08-20T06:39:50;4.30;;;3.90;;
16705;SDS011;8469;60.136;15.180;2022-08-20T06:42:18;4.95;;;3.80;;
16705;SDS011;8469;60.136;15.180;2022-08-20T06:44:47;4.87;;;4.30;;
16705;SDS011;8469;60.136;15.180;2022-08-20T06:47:16;5.22;;;4.00;;
16705;SDS011;8469;60.136;15.180;2022-08-20T06:49:43;5.40;;;4.10;;
16705;SDS011;8469;60.136;15.180;2022-08-20T06:52:13;4.50;;;4.00;;
16705;SDS011;8469;60.136;15.180;2022-08-20T06:54:44;4.75;;;3.90;;
16705;SDS011;8469;60.136;15.180;2022-08-20T06:57:11;4.90;;;3.90;;
16705;SDS011;8469;60.136;15.180;2022-08-20T06:59:38;4.85;;;4.30;;
16705;SDS011;8469;60.136;15.180;2022-08-20T07:02:07;6.30;;;3.83;;
16705;SDS011;8469;60.136;15.180;2022-08-20T07:04:34;5.17;;;4.05;;
16705;SDS011;8469;60.136;15.180;2022-08-20T07:07:02;4.60;;;3.95;;
16705;SDS011;8469;60.136;15.180;2022-08-20T07:09:31;3.92;;;3.62;;
16705;SDS011;8469;60.136;15.180;2022-08-20T07:11:58;6.50;;;3.80;;
16705;SDS011;8469;60.136;15.180;2022-08-20T07:14:26;7.17;;;4.60;;
16705;SDS011;8469;60.136;15.180;2022-08-20T07:16:53;8.98;;;3.98;;
16705;SDS011;8469;60.136;15.180;2022-08-20T07:19:20;7.28;;;3.60;;
16705;SDS011;8469;60.136;15.180;2022-08-20T07:21:48;4.90;;;3.40;;
16705;SDS011;8469;60.136;15.180;2022-08-20T07:24:15;7.78;;;3.80;;
16705;SDS011;8469;60.136;15.180;2022-08-20T07:29:29;6.58;;;3.92;;
16705;SDS011;8469;60.136;15.180;2022-08-20T07:31:58;5.60;;;4.00;;
16705;SDS011;8469;60.136;15.180;2022-08-20T07:34:44;4.58;;;4.17;;
16705;SDS011;8469;60.136;15.180;2022-08-20T07:37:11;7.53;;;4.23;;
16705;SDS011;8469;60.136;15.180;2022-08-20T07:39:38;5.00;;;4.33;;
16705;SDS011;8469;60.136;15.180;2022-08-20T07:42:06;4.95;;;4.17;;
16705;SDS011;8469;60.136;15.180;2022-08-20T07:44:34;5.60;;;4.22;;
16705;SDS011;8469;60.136;15.180;2022-08-20T07:47:03;5.93;;;4.40;;
16705;SDS011;8469;60.136;15.180;2022-08-20T07:49:35;6.67;;;5.00;;
16705;SDS011;8469;60.136;15.180;2022-08-20T07:52:00;6.92;;;4.97;;
16705;SDS011;8469;60.136;15.180;2022-08-20T07:54:27;6.05;;;5.10;;
16705;SDS011;8469;60.136;15.180;2022-08-20T07:56:55;8.00;;;4.87;;
16705;SDS011;8469;60.136;15.180;2022-08-20T07:59:22;5.87;;;4.80;;
16705;SDS011;8469;60.136;15.180;2022-08-20T08:01:50;6.30;;;4.60;;
16705;SDS011;8469;60.136;15.180;2022-08-20T08:04:17;5.12;;;4.62;;
16705;SDS011;8469;60.136;15.180;2022-08-20T08:06:44;4.90;;;4.50;;
16705;SDS011;8469;60.136;15.180;2022-08-20T08:09:12;5.10;;;4.30;;
16705;SDS011;8469;60.136;15.180;2022-08-20T08:11:40;5.60;;;4.58;;
16705;SDS011;8469;60.136;15.180;2022-08-20T08:14:09;4.92;;;4.42;;
16705;SDS011;8469;60.136;15.180;2022-08-20T08:16:37;5.37;;;4.75;;
16705;SDS011;8469;60.136;15.180;2022-08-20T08:19:05;6.42;;;4.42;;
16705;SDS011;8469;60.136;15.180;2022-08-20T08:21:33;4.83;;;4.15;;
16705;SDS011;8469;60.136;15.180;2022-08-20T08:24:00;6.15;;;4.47;;
16705;SDS011;8469;60.136;15.180;2022-08-20T08:26:28;11.15;;;4.53;;
16705;SDS011;8469;60.136;15.180;2022-08-20T08:28:55;6.12;;;4.70;;
16705;SDS011;8469;60.136;15.180;2022-08-20T08:31:29;5.67;;;4.47;;
16705;SDS011;8469;60.136;15.180;2022-08-20T08:33:55;7.10;;;5.15;;
16705;SDS011;8469;60.136;15.180;2022-08-20T08:36:22;5.65;;;5.08;;
16705;SDS011;8469;60.136;15.180;2022-08-20T08:38:51;6.25;;;5.60;;
16705;SDS011;8469;60.136;15.180;2022-08-20T08:41:23;5.47;;;5.00;;
16705;SDS011;8469;60.136;15.180;2022-08-20T08:43:50;5.57;;;5.07;;
16705;SDS011;8469;60.136;15.180;2022-08-20T08:46:19;5.67;;;5.10;;
16705;SDS011;8469;60.136;15.180;2022-08-20T08:48:48;6.33;;;5.37;;
16705;SDS011;8469;60.136;15.180;2022-08-20T08:51:20;6.33;;;5.22;;
16705;SDS011;8469;60.136;15.180;2022-08-20T08:53:49;5.35;;;4.85;;
16705;SDS011;8469;60.136;15.180;2022-08-20T08:56:17;7.43;;;5.10;;
16705;SDS011;8469;60.136;15.180;2022-08-20T08:58:45;6.83;;;5.55;;
16705;SDS011;8469;60.136;15.180;2022-08-20T09:01:14;6.15;;;5.55;;
16705;SDS011;8469;60.136;15.180;2022-08-20T09:03:42;7.20;;;5.72;;
16705;SDS011;8469;60.136;15.180;2022-08-20T09:06:13;6.27;;;5.30;;
16705;SDS011;8469;60.136;15.180;2022-08-20T09:08:45;6.70;;;5.70;;
16705;SDS011;8469;60.136;15.180;2022-08-20T09:11:14;6.28;;;5.45;;
16705;SDS011;8469;60.136;15.180;2022-08-20T09:13:41;5.67;;;5.10;;
16705;SDS011;8469;60.136;15.180;2022-08-20T09:16:09;5.45;;;5.00;;
16705;SDS011;8469;60.136;15.180;2022-08-20T09:18:36;5.17;;;4.67;;
16705;SDS011;8469;60.136;15.180;2022-08-20T09:21:04;5.67;;;5.17;;
16705;SDS011;8469;60.136;15.180;2022-08-20T09:23:32;6.78;;;5.10;;
16705;SDS011;8469;60.136;15.180;2022-08-20T09:25:59;5.17;;;4.60;;
16705;SDS011;8469;60.136;15.180;2022-08-20T09:28:26;4.90;;;4.25;;
16705;SDS011;8469;60.136;15.180;2022-08-20T09:30:53;4.70;;;4.30;;
16705;SDS011;8469;60.136;15.180;2022-08-20T09:33:21;5.08;;;4.65;;
16705;SDS011;8469;60.136;15.180;2022-08-20T09:35:48;4.50;;;4.10;;
16705;SDS011;8469;60.136;15.180;2022-08-20T09:38:15;5.10;;;4.70;;
16705;SDS011;8469;60.136;15.180;2022-08-20T09:40:43;5.20;;;4.70;;
16705;SDS011;8469;60.136;15.180;2022-08-20T09:43:10;6.27;;;5.20;;
16705;SDS011;8469;60.136;15.180;2022-08-20T09:45:37;5.50;;;5.00;;
16705;SDS011;8469;60.136;15.180;2022-08-20T09:48:04;6.72;;;5.00;;
16705;SDS011;8469;60.136;15.180;2022-08-20T09:50:33;5.47;;;4.97;;
16705;SDS011;8469;60.136;15.180;2022-08-20T09:53:01;5.33;;;4.92;;
16705;SDS011;8469;60.136;15.180;2022-08-20T09:55:32;6.53;;;5.40;;
16705;SDS011;8469;60.136;15.180;2022-08-20T09:58:00;10.00;;;5.90;;
16705;SDS011;8469;60.136;15.180;2022-08-20T10:00:28;6.07;;;5.47;;
16705;SDS011;8469;60.136;15.180;2022-08-20T10:02:55;5.60;;;5.00;;
16705;SDS011;8469;60.136;15.180;2022-08-20T10:05:22;5.53;;;5.03;;
16705;SDS011;8469;60.136;15.180;2022-08-20T10:07:50;5.60;;;4.97;;
16705;SDS011;8469;60.136;15.180;2022-08-20T10:10:17;5.90;;;5.30;;
16705;SDS011;8469;60.136;15.180;2022-08-20T10:12:44;6.28;;;5.12;;
16705;SDS011;8469;60.136;15.180;2022-08-20T10:15:12;5.65;;;4.92;;
16705;SDS011;8469;60.136;15.180;2022-08-20T10:17:40;6.47;;;5.28;;
16705;SDS011;8469;60.136;15.180;2022-08-20T10:20:08;7.30;;;5.17;;
16705;SDS011;8469;60.136;15.180;2022-08-20T10:22:36;6.12;;;5.53;;
16705;SDS011;8469;60.136;15.180;2022-08-20T10:25:04;7.50;;;5.60;;
16705;SDS011;8469;60.136;15.180;2022-08-20T10:27:32;6.50;;;5.90;;
16705;SDS011;8469;60.136;15.180;2022-08-20T10:29:59;6.50;;;5.90;;
16705;SDS011;8469;60.136;15.180;2022-08-20T10:32:26;6.47;;;5.78;;
16705;SDS011;8469;60.136;15.180;2022-08-20T10:34:54;7.10;;;6.40;;
16705;SDS011;8469;60.136;15.180;2022-08-20T10:37:22;7.37;;;6.63;;
16705;SDS011;8469;60.136;15.180;2022-08-20T10:39:50;8.38;;;6.85;;
16705;SDS011;8469;60.136;15.180;2022-08-20T10:42:17;6.20;;;5.47;;
16705;SDS011;8469;60.136;15.180;2022-08-20T10:44:44;6.40;;;5.80;;
16705;SDS011;8469;60.136;15.180;2022-08-20T10:47:19;6.60;;;5.85;;
16705;SDS011;8469;60.136;15.180;2022-08-20T10:49:47;7.47;;;6.78;;
16705;SDS011;8469;60.136;15.180;2022-08-20T10:52:15;7.85;;;6.65;;
16705;SDS011;8469;60.136;15.180;2022-08-20T10:54:42;7.47;;;6.73;;
16705;SDS011;8469;60.136;15.180;2022-08-20T10:57:28;7.03;;;6.40;;
16705;SDS011;8469;60.136;15.180;2022-08-20T10:59:41;8.50;;;7.53;;
16705;SDS011;8469;60.136;15.180;2022-08-20T11:02:09;8.38;;;7.50;;
16705;SDS011;8469;60.136;15.180;2022-08-20T11:04:36;8.43;;;6.92;;
16705;SDS011;8469;60.136;15.180;2022-08-20T11:07:19;8.03;;;7.17;;
16705;SDS011;8469;60.136;15.180;2022-08-20T11:09:47;7.10;;;6.50;;
16705;SDS011;8469;60.136;15.180;2022-08-20T11:12:15;6.93;;;6.30;;
16705;SDS011;8469;60.136;15.180;2022-08-20T11:14:43;7.85;;;6.20;;
16705;SDS011;8469;60.136;15.180;2022-08-20T11:17:10;7.10;;;6.40;;
16705;SDS011;8469;60.136;15.180;2022-08-20T11:19:39;7.23;;;6.37;;
16705;SDS011;8469;60.136;15.180;2022-08-20T11:22:06;7.80;;;6.80;;
16705;SDS011;8469;60.136;15.180;2022-08-20T11:24:34;7.42;;;6.35;;
16705;SDS011;8469;60.136;15.180;2022-08-20T11:27:01;6.30;;;5.70;;
16705;SDS011;8469;60.136;15.180;2022-08-20T11:29:28;6.60;;;6.00;;
16705;SDS011;8469;60.136;15.180;2022-08-20T11:31:56;5.90;;;5.35;;
16705;SDS011;8469;60.136;15.180;2022-08-20T11:34:23;6.37;;;5.78;;
16705;SDS011;8469;60.136;15.180;2022-08-20T11:36:50;6.45;;;5.53;;
16705;SDS011;8469;60.136;15.180;2022-08-20T11:39:17;6.20;;;5.40;;
16705;SDS011;8469;60.136;15.180;2022-08-20T11:41:45;6.20;;;5.70;;
16705;SDS011;8469;60.136;15.180;2022-08-20T11:44:12;6.80;;;6.03;;
16705;SDS011;8469;60.136;15.180;2022-08-20T11:46:39;5.78;;;5.28;;
16705;SDS011;8469;60.136;15.180;2022-08-20T11:49:07;6.17;;;5.63;;
16705;SDS011;8469;60.136;15.180;2022-08-20T11:51:34;6.93;;;5.70;;
16705;SDS011;8469;60.136;15.180;2022-08-20T11:54:03;6.08;;;5.47;;
16705;SDS011;8469;60.136;15.180;2022-08-20T11:56:30;7.37;;;5.45;;
16705;SDS011;8469;60.136;15.180;2022-08-20T11:58:58;5.03;;;4.62;;
16705;SDS011;8469;60.136;15.180;2022-08-20T12:01:25;6.90;;;5.20;;
16705;SDS011;8469;60.136;15.180;2022-08-20T12:03:52;5.50;;;4.83;;
16705;SDS011;8469;60.136;15.180;2022-08-20T12:06:19;5.37;;;4.60;;
16705;SDS011;8469;60.136;15.180;2022-08-20T12:08:47;4.45;;;4.05;;
16705;SDS011;8469;60.136;15.180;2022-08-20T12:11:14;4.67;;;4.28;;
16705;SDS011;8469;60.136;15.180;2022-08-20T12:13:41;4.35;;;3.95;;
16705;SDS011;8469;60.136;15.180;2022-08-20T12:16:09;5.22;;;3.90;;
16705;SDS011;8469;60.136;15.180;2022-08-20T12:18:36;4.17;;;3.80;;
16705;SDS011;8469;60.136;15.180;2022-08-20T12:21:03;6.47;;;3.80;;
16705;SDS011;8469;60.136;15.180;2022-08-20T12:23:31;3.77;;;3.47;;
16705;SDS011;8469;60.136;15.180;2022-08-20T12:25:58;3.90;;;3.60;;
16705;SDS011;8469;60.136;15.180;2022-08-20T12:28:28;3.85;;;3.58;;
16705;SDS011;8469;60.136;15.180;2022-08-20T12:30:55;4.20;;;3.47;;
16705;SDS011;8469;60.136;15.180;2022-08-20T12:33:22;3.83;;;3.40;;
16705;SDS011;8469;60.136;15.180;2022-08-20T12:35:50;3.80;;;3.45;;
16705;SDS011;8469;60.136;15.180;2022-08-20T12:38:18;3.60;;;3.40;;
16705;SDS011;8469;60.136;15.180;2022-08-20T12:40:45;3.77;;;3.45;;
16705;SDS011;8469;60.136;15.180;2022-08-20T12:43:12;3.67;;;3.37;;
16705;SDS011;8469;60.136;15.180;2022-08-20T12:45:40;3.98;;;3.52;;
16705;SDS011;8469;60.136;15.180;2022-08-20T12:48:08;4.03;;;3.62;;
16705;SDS011;8469;60.136;15.180;2022-08-20T12:50:36;4.28;;;3.58;;
16705;SDS011;8469;60.136;15.180;2022-08-20T12:53:06;3.62;;;3.33;;
16705;SDS011;8469;60.136;15.180;2022-08-20T12:55:32;3.80;;;3.50;;
16705;SDS011;8469;60.136;15.180;2022-08-20T12:58:00;3.87;;;3.58;;
16705;SDS011;8469;60.136;15.180;2022-08-20T13:00:30;3.85;;;3.52;;
16705;SDS011;8469;60.136;15.180;2022-08-20T13:02:57;4.07;;;3.67;;
16705;SDS011;8469;60.136;15.180;2022-08-20T13:05:25;3.92;;;3.52;;
16705;SDS011;8469;60.136;15.180;2022-08-20T13:07:53;3.97;;;3.10;;
16705;SDS011;8469;60.136;15.180;2022-08-20T13:10:29;3.65;;;3.42;;
16705;SDS011;8469;60.136;15.180;2022-08-20T13:12:54;4.53;;;3.22;;
16705;SDS011;8469;60.136;15.180;2022-08-20T13:15:21;3.40;;;3.10;;
16705;SDS011;8469;60.136;15.180;2022-08-20T13:17:59;3.73;;;3.40;;
16705;SDS011;8469;60.136;15.180;2022-08-20T13:20:21;4.15;;;3.40;;
16705;SDS011;8469;60.136;15.180;2022-08-20T13:22:50;3.80;;;3.50;;
16705;SDS011;8469;60.136;15.180;2022-08-20T13:25:18;5.17;;;3.50;;
16705;SDS011;8469;60.136;15.180;2022-08-20T13:27:45;4.67;;;3.20;;
16705;SDS011;8469;60.136;15.180;2022-08-20T13:30:13;3.70;;;3.40;;
16705;SDS011;8469;60.136;15.180;2022-08-20T13:32:41;3.80;;;3.50;;
16705;SDS011;8469;60.136;15.180;2022-08-20T13:35:09;3.77;;;3.47;;
16705;SDS011;8469;60.136;15.180;2022-08-20T13:37:37;5.25;;;3.52;;
16705;SDS011;8469;60.136;15.180;2022-08-20T13:40:07;4.03;;;3.72;;
16705;SDS011;8469;60.136;15.180;2022-08-20T13:42:36;4.92;;;3.90;;
16705;SDS011;8469;60.136;15.180;2022-08-20T13:45:04;5.90;;;4.28;;
16705;SDS011;8469;60.136;15.180;2022-08-20T13:47:32;4.17;;;3.80;;
16705;SDS011;8469;60.136;15.180;2022-08-20T13:50:08;4.10;;;3.72;;
16705;SDS011;8469;60.136;15.180;2022-08-20T13:52:35;4.33;;;3.70;;
16705;SDS011;8469;60.136;15.180;2022-08-20T13:55:03;4.00;;;3.70;;
16705;SDS011;8469;60.136;15.180;2022-08-20T13:57:31;3.22;;;3.00;;
16705;SDS011;8469;60.136;15.180;2022-08-20T13:59:58;3.50;;;3.20;;
16705;SDS011;8469;60.136;15.180;2022-08-20T14:02:25;3.10;;;2.90;;
16705;SDS011;8469;60.136;15.180;2022-08-20T14:04:53;3.30;;;3.10;;
16705;SDS011;8469;60.136;15.180;2022-08-20T14:07:27;3.50;;;3.20;;
16705;SDS011;8469;60.136;15.180;2022-08-20T14:09:51;3.47;;;3.17;;
16705;SDS011;8469;60.136;15.180;2022-08-20T14:12:19;4.92;;;3.22;;
16705;SDS011;8469;60.136;15.180;2022-08-20T14:14:49;3.95;;;3.50;;
16705;SDS011;8469;60.136;15.180;2022-08-20T14:17:20;3.70;;;3.40;;
16705;SDS011;8469;60.136;15.180;2022-08-20T14:19:50;3.37;;;3.12;;
16705;SDS011;8469;60.136;15.180;2022-08-20T14:22:18;3.63;;;3.20;;
16705;SDS011;8469;60.136;15.180;2022-08-20T14:24:46;3.33;;;3.08;;
16705;SDS011;8469;60.136;15.180;2022-08-20T14:27:15;3.52;;;3.22;;
16705;SDS011;8469;60.136;15.180;2022-08-20T14:29:43;4.00;;;3.70;;
16705;SDS011;8469;60.136;15.180;2022-08-20T14:32:10;3.00;;;2.80;;
16705;SDS011;8469;60.136;15.180;2022-08-20T14:34:38;3.37;;;3.17;;
16705;SDS011;8469;60.136;15.180;2022-08-20T14:37:09;2.90;;;2.70;;
16705;SDS011;8469;60.136;15.180;2022-08-20T14:39:37;4.20;;;2.90;;
16705;SDS011;8469;60.136;15.180;2022-08-20T14:42:04;2.90;;;2.70;;
16705;SDS011;8469;60.136;15.180;2022-08-20T14:44:31;2.87;;;2.60;;
16705;SDS011;8469;60.136;15.180;2022-08-20T14:47:11;2.90;;;2.70;;
16705;SDS011;8469;60.136;15.180;2022-08-20T14:49:39;2.55;;;2.35;;
16705;SDS011;8469;60.136;15.180;2022-08-20T14:52:06;2.80;;;2.60;;
16705;SDS011;8469;60.136;15.180;2022-08-20T14:54:34;3.20;;;2.50;;
16705;SDS011;8469;60.136;15.180;2022-08-20T14:57:02;3.10;;;2.90;;